Anna Noli — IZEL — position and weather

sailwx.info

Track history (hours):
 
Tides and Currents Weather Stations Pressure Air Temp Water Temp Dewpoint Dewpoint Depression Visibility Wind Speed Wind Dir Waves Ship Positions

Anna Noli

Last reported at 2018-May-25 16:28 UTC. Time now 2018-May-25 16:54 UTC.
Position N 44°19' E 008°29'.

Length 32 m.

Type: Tug. MMSI: 247046500.

Date/timePositionNaut miles runAvg speedWind from/ knotsBaromVisibWave heightAir tempDewpointWater temp
2018-May-25 16:28N 44°19' E 008°29'0 0.0
2018-May-25 15:58N 44°19' E 008°29'0 0.0
2018-May-25 15:28N 44°19' E 008°29'0 0.0
2018-May-25 14:58N 44°19' E 008°29'0 0.0
2018-May-25 14:28N 44°19' E 008°29'0 0.0
2018-May-25 13:58N 44°19' E 008°29'0 0.0
2018-May-25 13:28N 44°19' E 008°29'0 0.0
2018-May-25 12:58N 44°19' E 008°29'0 0.0
2018-May-25 12:28N 44°19' E 008°29'0 0.0
2018-May-25 11:58N 44°19' E 008°29'0 0.0
2018-May-25 11:28N 44°19' E 008°29'0 0.0
2018-May-25 10:58N 44°19' E 008°29'0 0.0
2018-May-25 10:28N 44°19' E 008°29'0 0.0
2018-May-25 09:58N 44°19' E 008°29'0 0.0
2018-May-25 09:28N 44°19' E 008°29'0 0.0
2018-May-25 06:53N 44°19' E 008°29'1 1.4
2018-May-25 06:28N 44°19' E 008°30'0 0.0
2018-May-25 05:39N 44°19' E 008°30'1 0.4
2018-May-25 04:19N 44°19' E 008°29'0 0.0
2018-May-24 19:46N 44°19' E 008°29'0 0.0
2018-May-24 19:19N 44°19' E 008°29'0 0.0
2018-May-24 18:33N 44°19' E 008°29'0 4.6
2018-May-24 18:27N 44°19' E 008°30'3 5.4
2018-May-24 17:55N 44°16' E 008°28'0 0.3
2018-May-24 17:28N 44°16' E 008°28'0 0.3
2018-May-24 16:58N 44°17' E 008°28'1 1.8
2018-May-24 16:27N 44°16' E 008°27'0 0.0
2018-May-24 15:10N 44°16' E 008°27'1 6.9
2018-May-24 15:00N 44°17' E 008°28'2 4.5
2018-May-24 14:27N 44°19' E 008°30'1 1.0
2018-May-24 13:56N 44°19' E 008°31'1 0.2
2018-May-24 08:29N 44°19' E 008°29'0 0.0
2018-May-24 07:59N 44°19' E 008°29'0 0.0
2018-May-24 07:29N 44°19' E 008°29'0 0.0
2018-May-24 06:59N 44°19' E 008°29'0 0.0
2018-May-24 06:29N 44°19' E 008°29'0 0.0
2018-May-24 05:59N 44°19' E 008°29'0 0.0
2018-May-24 05:29N 44°19' E 008°29'0 0.0
2018-May-24 04:59N 44°19' E 008°29'0 0.0
2018-May-24 04:29N 44°19' E 008°29'0 0.0
2018-May-24 03:59N 44°19' E 008°29'0 0.0
2018-May-24 03:29N 44°19' E 008°29'0 0.0
2018-May-24 02:59N 44°19' E 008°29'0 0.0
2018-May-24 02:29N 44°19' E 008°29'0 0.0
2018-May-24 01:59N 44°19' E 008°29'0 0.0
2018-May-24 01:29N 44°19' E 008°29'0 0.0
2018-May-24 00:59N 44°19' E 008°29'0 0.0
2018-May-24 00:29N 44°19' E 008°29'0 0.0
2018-May-23 23:59N 44°19' E 008°29'0 0.0
2018-May-23 23:29N 44°19' E 008°29'0 0.0
2018-May-23 22:59N 44°19' E 008°29'0 0.0
2018-May-23 22:29N 44°19' E 008°29'0 0.0
2018-May-23 21:59N 44°19' E 008°29'0 0.0
2018-May-23 21:29N 44°19' E 008°29'0 0.0
2018-May-23 20:59N 44°19' E 008°29'0 0.0
2018-May-23 20:29N 44°19' E 008°29'0 0.0
2018-May-23 19:59N 44°19' E 008°29'0 0.0
2018-May-23 19:29N 44°19' E 008°29'0 0.0
2018-May-23 18:59N 44°19' E 008°29'0 0.0
2018-May-23 18:29N 44°19' E 008°29'0 0.0
2018-May-23 17:59N 44°19' E 008°29'0 0.0
2018-May-23 17:29N 44°19' E 008°29'0 0.0
2018-May-23 16:59N 44°19' E 008°29'0 0.0
2018-May-23 16:29N 44°19' E 008°29'0 0.0
2018-May-23 15:59N 44°19' E 008°29'0 0.0
2018-May-23 15:29N 44°19' E 008°29'0 0.0
2018-May-23 14:59N 44°19' E 008°29'0 0.0
2018-May-23 14:26N 44°19' E 008°29'1 2.1
2018-May-23 14:00N 44°18' E 008°29'1 2.8
2018-May-23 13:30N 44°17' E 008°28'0 0.3
2018-May-23 13:00N 44°16' E 008°28'0 0.8
2018-May-23 12:30N 44°16' E 008°27'0 0.9
2018-May-23 11:58N 44°16' E 008°27'1 1.9
2018-May-23 11:30N 44°16' E 008°28'0 0.2
2018-May-23 10:56N 44°16' E 008°28'0 0.2
2018-May-23 10:26N 44°17' E 008°28'2 5.7
2018-May-23 10:00N 44°18' E 008°30'1 0.9
2018-May-23 09:26N 44°19' E 008°29'0 0.0
2018-May-23 08:56N 44°19' E 008°29'0 0.0
2018-May-23 08:26N 44°19' E 008°29'0 0.0
2018-May-23 07:38N 44°19' E 008°29'0 0.0
2018-May-23 07:26N 44°19' E 008°29'0 0.0
2018-May-23 06:56N 44°19' E 008°29'0 0.0
2018-May-23 06:26N 44°19' E 008°29'0 0.0
2018-May-23 05:56N 44°19' E 008°29'0 0.0
2018-May-23 05:26N 44°19' E 008°29'0 0.0
2018-May-23 04:56N 44°19' E 008°29'0 0.0
2018-May-23 04:26N 44°19' E 008°29'0 0.0
2018-May-23 03:56N 44°19' E 008°29'0 0.0
2018-May-23 03:26N 44°19' E 008°29'0 0.0
2018-May-23 02:56N 44°19' E 008°29'0 0.0
2018-May-23 02:26N 44°19' E 008°29'0 0.0
2018-May-23 01:56N 44°19' E 008°29'0 0.0
2018-May-23 01:26N 44°19' E 008°29'0 0.0
2018-May-23 00:56N 44°19' E 008°29'0 0.0
2018-May-23 00:20N 44°19' E 008°29'0 0.0
2018-May-22 23:56N 44°19' E 008°29'0 0.0
2018-May-22 23:26N 44°19' E 008°29'0 0.0
2018-May-22 22:56N 44°19' E 008°29'0 0.0
2018-May-22 22:20N 44°19' E 008°29'0 0.0
2018-May-22 21:56N 44°19' E 008°29'0 0.0
2018-May-22 21:26N 44°19' E 008°29'0 0.0
2018-May-22 20:56N 44°19' E 008°29'0 0.0
2018-May-22 20:26N 44°19' E 008°29'0 0.0
2018-May-22 19:56N 44°19' E 008°29'0 0.0
2018-May-22 19:26N 44°19' E 008°29'0 0.0
2018-May-22 18:56N 44°19' E 008°29'0 0.0
2018-May-22 18:26N 44°19' E 008°29'0 0.0
2018-May-22 17:56N 44°19' E 008°29'1 1.9
2018-May-22 17:31N 44°19' E 008°30'4 6.9
2018-May-22 16:56N 44°16' E 008°27'0 0.0
2018-May-22 16:26N 44°16' E 008°27'0 0.0
2018-May-22 15:56N 44°16' E 008°27'0 0.0
2018-May-22 15:29N 44°16' E 008°27'0 0.0
2018-May-22 14:56N 44°16' E 008°27'0 0.0
2018-May-22 14:26N 44°16' E 008°27'0 0.0
2018-May-22 13:56N 44°16' E 008°27'0 0.0
2018-May-22 13:26N 44°16' E 008°27'0 0.9
2018-May-22 12:57N 44°16' E 008°27'0 0.9
2018-May-22 12:27N 44°16' E 008°27'0 0.5
2018-May-22 11:59N 44°16' E 008°27'0 0.5
2018-May-22 11:27N 44°16' E 008°27'0 0.5
2018-May-22 10:53N 44°16' E 008°27'0 0.0
2018-May-22 10:29N 44°16' E 008°27'0 0.0
2018-May-22 09:59N 44°16' E 008°27'0 0.0
2018-May-22 09:29N 44°16' E 008°27'0 0.0
2018-May-22 08:59N 44°16' E 008°27'1 1.9
2018-May-22 08:24N 44°17' E 008°28'0 0.0
2018-May-22 07:55N 44°17' E 008°28'0 0.1
2018-May-22 07:25N 44°17' E 008°28'0 0.7
2018-May-22 06:55N 44°16' E 008°28'1 1.5
2018-May-22 06:30N 44°16' E 008°28'3 5.6
2018-May-22 06:00N 44°18' E 008°30'0 0.9
2018-May-22 05:27N 44°19' E 008°29'0 0.0
2018-May-22 04:57N 44°19' E 008°29'0 0.0
2018-May-22 04:27N 44°19' E 008°29'0 0.0
2018-May-22 03:57N 44°19' E 008°29'0 0.0
2018-May-22 03:27N 44°19' E 008°29'0 0.0
2018-May-22 02:57N 44°19' E 008°29'0 0.0
2018-May-22 02:27N 44°19' E 008°29'0 0.0
2018-May-22 01:57N 44°19' E 008°29'0 0.0
2018-May-22 01:27N 44°19' E 008°29'0 0.0
2018-May-22 00:57N 44°19' E 008°29'0 0.0
2018-May-22 00:27N 44°19' E 008°29'0 0.0
2018-May-21 23:57N 44°19' E 008°29'0 0.0
2018-May-21 23:27N 44°19' E 008°29'0 0.0
2018-May-21 22:57N 44°19' E 008°29'0 0.0
2018-May-21 22:27N 44°19' E 008°29'0 0.0
2018-May-21 21:57N 44°19' E 008°29'0 0.0
2018-May-21 21:27N 44°19' E 008°29'0 0.0
2018-May-21 20:57N 44°19' E 008°29'0 0.0
2018-May-21 20:27N 44°19' E 008°29'0 0.0
2018-May-21 19:57N 44°19' E 008°29'0 0.0
2018-May-21 19:27N 44°19' E 008°29'0 0.0
2018-May-21 18:57N 44°19' E 008°29'0 0.0
2018-May-21 18:27N 44°19' E 008°29'0 0.0
2018-May-21 17:57N 44°19' E 008°29'0 0.0
2018-May-21 17:27N 44°19' E 008°29'0 0.0
2018-May-21 16:57N 44°19' E 008°29'0 0.0
2018-May-21 16:27N 44°19' E 008°29'0 0.0
2018-May-21 15:57N 44°19' E 008°29'0 0.0
2018-May-21 15:27N 44°19' E 008°29'0 0.0
2018-May-21 14:57N 44°19' E 008°29'0 0.0
2018-May-21 14:27N 44°19' E 008°29'0 0.0
2018-May-21 13:57N 44°19' E 008°29'0 0.0
2018-May-21 13:27N 44°19' E 008°29'0 0.0
2018-May-21 12:57N 44°19' E 008°29'0 0.0
2018-May-21 12:27N 44°19' E 008°29'0 0.0
2018-May-21 11:57N 44°19' E 008°29'0 0.0
2018-May-21 11:27N 44°19' E 008°29'0 0.0
2018-May-21 10:57N 44°19' E 008°29'0 0.0
2018-May-21 10:27N 44°19' E 008°29'0 0.0
2018-May-21 09:57N 44°19' E 008°29'0 0.0
2018-May-21 09:27N 44°19' E 008°29'0 0.0
2018-May-21 08:57N 44°19' E 008°29'0 0.0
2018-May-21 08:27N 44°19' E 008°29'0 0.0
2018-May-21 07:57N 44°19' E 008°29'0 0.0
2018-May-21 07:27N 44°19' E 008°29'0 0.0
2018-May-21 06:57N 44°19' E 008°29'0 0.0
2018-May-21 06:27N 44°19' E 008°29'0 0.0
2018-May-21 05:57N 44°19' E 008°29'0 0.0
2018-May-21 05:27N 44°19' E 008°29'0 0.0
2018-May-21 04:57N 44°19' E 008°29'0 0.0
2018-May-21 04:27N 44°19' E 008°29'0 0.0
2018-May-21 03:59N 44°19' E 008°29'0 0.9
2018-May-21 03:29N 44°19' E 008°30'0 0.8
2018-May-21 02:59N 44°19' E 008°30'1 1.8
2018-May-21 02:30N 44°19' E 008°29'0 0.0
2018-May-21 01:54N 44°19' E 008°29'0 0.0
2018-May-21 01:24N 44°19' E 008°29'0 0.0
2018-May-21 01:00N 44°19' E 008°29'0 0.0
2018-May-21 00:30N 44°19' E 008°29'0 0.0
2018-May-21 00:00N 44°19' E 008°29'0 0.0
2018-May-20 23:30N 44°19' E 008°29'0 0.0
2018-May-20 23:00N 44°19' E 008°29'0 0.0
2018-May-20 22:30N 44°19' E 008°29'0 0.0
2018-May-20 22:00N 44°19' E 008°29'0 0.0
2018-May-20 21:30N 44°19' E 008°29'0 0.0
2018-May-20 21:00N 44°19' E 008°29'0 0.0
2018-May-20 20:30N 44°19' E 008°29'0 0.0
2018-May-20 20:00N 44°19' E 008°29'0 0.0
2018-May-20 19:18N 44°19' E 008°29'0 0.0
2018-May-20 19:00N 44°19' E 008°29'0 0.0
2018-May-20 18:30N 44°19' E 008°29'0 0.0
2018-May-20 18:00N 44°19' E 008°29'0 0.0
2018-May-20 17:30N 44°19' E 008°29'0 0.1
2018-May-20 16:59N 44°18' E 008°29'0 0.0
2018-May-20 16:29N 44°18' E 008°29'0 0.0
2018-May-20 15:59N 44°18' E 008°29'0 0.0
2018-May-20 15:29N 44°18' E 008°29'0 0.0
2018-May-20 14:59N 44°18' E 008°29'0 0.0
2018-May-20 14:29N 44°18' E 008°29'0 0.0
2018-May-20 13:59N 44°18' E 008°29'0 0.0
2018-May-20 13:29N 44°18' E 008°29'0 0.0
2018-May-20 12:59N 44°18' E 008°29'1 1.3
2018-May-20 12:30N 44°19' E 008°30'0 0.6
2018-May-20 12:00N 44°19' E 008°30'0 0.7
2018-May-20 11:26N 44°18' E 008°29'0 0.0
2018-May-20 10:59N 44°18' E 008°29'1 1.3
2018-May-20 10:30N 44°19' E 008°30'0 0.5
2018-May-20 09:59N 44°19' E 008°30'0 0.8
2018-May-20 09:30N 44°18' E 008°29'0 0.0
2018-May-20 08:48N 44°18' E 008°29'0 0.0
2018-May-20 08:30N 44°18' E 008°29'0 0.0
2018-May-20 07:54N 44°18' E 008°29'0 0.0
2018-May-20 07:24N 44°18' E 008°29'0 0.0
2018-May-20 07:00N 44°18' E 008°29'0 0.0
2018-May-20 06:30N 44°18' E 008°29'0 0.0
2018-May-20 06:00N 44°18' E 008°29'0 0.0
2018-May-20 05:30N 44°18' E 008°29'0 0.0
2018-May-20 05:00N 44°18' E 008°29'0 0.0
2018-May-20 04:30N 44°18' E 008°29'0 0.0
2018-May-20 04:00N 44°18' E 008°29'0 0.0
2018-May-20 03:30N 44°18' E 008°29'0 0.0
2018-May-20 03:00N 44°18' E 008°29'0 0.0
2018-May-20 02:30N 44°18' E 008°29'0 0.0
2018-May-20 01:54N 44°18' E 008°29'0 0.0
2018-May-20 01:30N 44°18' E 008°29'0 0.0
2018-May-20 01:00N 44°18' E 008°29'0 0.0
2018-May-20 00:30N 44°18' E 008°29'0 0.0
2018-May-20 00:00N 44°18' E 008°29'0 0.0
2018-May-19 23:30N 44°18' E 008°29'0 0.0
2018-May-19 23:00N 44°18' E 008°29'0 0.0
2018-May-19 22:30N 44°18' E 008°29'0 0.0
2018-May-19 21:54N 44°18' E 008°29'0 0.0
2018-May-19 21:30N 44°18' E 008°29'0 0.0
2018-May-19 21:00N 44°18' E 008°29'0 0.0
2018-May-19 20:30N 44°18' E 008°29'0 0.0
2018-May-19 20:00N 44°18' E 008°29'0 0.0
2018-May-19 19:24N 44°18' E 008°29'0 0.0
2018-May-19 19:00N 44°18' E 008°29'0 0.0
2018-May-19 18:30N 44°18' E 008°29'0 0.0
2018-May-19 18:00N 44°18' E 008°29'0 0.0
2018-May-19 17:30N 44°18' E 008°29'0 0.0
2018-May-19 17:00N 44°18' E 008°29'0 0.0
2018-May-19 16:30N 44°18' E 008°29'0 0.0
2018-May-19 15:54N 44°18' E 008°29'0 0.0
2018-May-19 15:30N 44°18' E 008°29'0 0.0
2018-May-19 15:00N 44°18' E 008°29'0 0.0
2018-May-19 14:30N 44°18' E 008°29'0 0.0
2018-May-19 14:00N 44°18' E 008°29'0 0.0
2018-May-19 13:24N 44°18' E 008°29'0 0.0
2018-May-19 13:00N 44°18' E 008°29'0 0.0
2018-May-19 12:30N 44°18' E 008°29'0 0.0
2018-May-19 12:00N 44°18' E 008°29'0 0.0
2018-May-19 11:30N 44°18' E 008°29'0 0.0
2018-May-19 10:48N 44°18' E 008°29'0 0.3
2018-May-19 10:30N 44°19' E 008°29'0 0.6
2018-May-19 10:00N 44°19' E 008°30'0 0.9
2018-May-19 09:30N 44°19' E 008°30'1 1.3
2018-May-19 08:57N 44°19' E 008°29'0 0.0
2018-May-19 08:30N 44°19' E 008°29'0 0.0
2018-May-19 07:57N 44°19' E 008°29'0 0.0
2018-May-19 07:27N 44°19' E 008°29'0 0.0
2018-May-19 06:57N 44°19' E 008°29'0 0.0
2018-May-19 06:27N 44°19' E 008°29'0 0.0
2018-May-19 05:57N 44°19' E 008°29'0 0.0
2018-May-19 05:27N 44°19' E 008°29'0 0.0
2018-May-19 04:57N 44°19' E 008°29'0 0.0
2018-May-19 04:27N 44°19' E 008°29'0 0.0
2018-May-19 03:57N 44°19' E 008°29'0 0.0
2018-May-19 03:27N 44°19' E 008°29'0 0.0
2018-May-19 02:57N 44°19' E 008°29'0 0.0
2018-May-19 02:27N 44°19' E 008°29'0 0.0
2018-May-19 01:57N 44°19' E 008°29'0 0.0
2018-May-19 01:27N 44°19' E 008°29'0 0.0
2018-May-19 00:57N 44°19' E 008°29'0 0.0
2018-May-19 00:27N 44°19' E 008°29'0 0.0
2018-May-18 23:57N 44°19' E 008°29'0 0.0
2018-May-18 23:27N 44°19' E 008°29'0 0.0
2018-May-18 22:57N 44°19' E 008°29'0 0.0
2018-May-18 22:27N 44°19' E 008°29'0 0.0
2018-May-18 21:57N 44°19' E 008°29'0 0.0
2018-May-18 21:27N 44°19' E 008°29'0 0.0
2018-May-18 20:57N 44°19' E 008°29'0 0.0
2018-May-18 20:27N 44°19' E 008°29'0 0.0
2018-May-18 19:57N 44°19' E 008°29'0 0.0
2018-May-18 19:27N 44°19' E 008°29'0 0.0
2018-May-18 18:57N 44°19' E 008°29'0 0.0
2018-May-18 18:27N 44°19' E 008°29'0 0.0
2018-May-18 17:51N 44°19' E 008°29'0 0.0
2018-May-18 17:27N 44°19' E 008°29'0 0.0
2018-May-18 16:51N 44°19' E 008°29'0 0.0
2018-May-18 16:21N 44°19' E 008°29'0 0.0
2018-May-18 15:57N 44°19' E 008°29'0 0.0
2018-May-18 15:27N 44°19' E 008°29'0 0.0
2018-May-18 14:57N 44°19' E 008°29'0 0.0
2018-May-18 14:27N 44°19' E 008°29'0 0.0
2018-May-18 13:57N 44°19' E 008°29'0 0.0
2018-May-18 13:27N 44°19' E 008°29'0 0.0
2018-May-18 12:48N 44°19' E 008°29'0 0.0
2018-May-18 12:27N 44°19' E 008°29'0 0.0
2018-May-18 12:00N 44°19' E 008°29'0 0.0
2018-May-18 11:27N 44°19' E 008°29'0 0.0
2018-May-18 10:57N 44°19' E 008°29'0 0.0
2018-May-18 10:27N 44°19' E 008°29'0 0.0
2018-May-18 09:57N 44°19' E 008°29'0 0.0
2018-May-18 09:27N 44°19' E 008°29'0 0.0
2018-May-18 06:57N 44°19' E 008°29'0 0.0
2018-May-18 06:27N 44°19' E 008°29'0 0.0
2018-May-18 05:57N 44°19' E 008°29'0 0.0
2018-May-18 05:27N 44°19' E 008°29'0 0.0
2018-May-18 04:57N 44°19' E 008°29'0 0.0
2018-May-18 04:27N 44°19' E 008°29'0 0.0
2018-May-18 03:57N 44°19' E 008°29'0 0.0
2018-May-18 03:27N 44°19' E 008°29'0 0.0
2018-May-18 02:57N 44°19' E 008°29'0 0.0
2018-May-18 02:27N 44°19' E 008°29'0 0.0
2018-May-18 01:57N 44°19' E 008°29'0 0.0
2018-May-18 01:27N 44°19' E 008°29'0 0.0
2018-May-18 00:57N 44°19' E 008°29'0 0.0
2018-May-18 00:27N 44°19' E 008°29'0 0.0
2018-May-17 23:57N 44°19' E 008°29'0 0.0
2018-May-17 23:27N 44°19' E 008°29'0 0.0
2018-May-17 22:57N 44°19' E 008°29'0 0.0
2018-May-17 22:27N 44°19' E 008°29'0 0.0
2018-May-17 21:57N 44°19' E 008°29'0 0.0
2018-May-17 21:27N 44°19' E 008°29'0 0.0
2018-May-17 20:57N 44°19' E 008°29'0 0.0
2018-May-17 20:27N 44°19' E 008°29'0 0.0
2018-May-17 19:45N 44°19' E 008°29'0 0.0
2018-May-17 19:27N 44°19' E 008°29'0 0.0
2018-May-17 18:57N 44°19' E 008°29'0 0.0
2018-May-17 18:27N 44°19' E 008°29'0 0.0
2018-May-17 17:57N 44°19' E 008°29'0 0.0
2018-May-17 17:27N 44°19' E 008°29'0 0.0
2018-May-17 16:57N 44°19' E 008°29'0 0.0
2018-May-17 16:27N 44°19' E 008°29'0 0.0
2018-May-17 15:57N 44°19' E 008°29'0 0.0
2018-May-17 15:27N 44°19' E 008°29'0 0.0
2018-May-17 14:57N 44°19' E 008°29'0 0.0
2018-May-17 14:27N 44°19' E 008°29'0 0.0
2018-May-17 13:57N 44°19' E 008°29'0 0.0
2018-May-17 13:27N 44°19' E 008°29'0 0.0
2018-May-17 12:57N 44°19' E 008°29'0 0.0
2018-May-17 12:27N 44°19' E 008°29'0 0.0
2018-May-17 11:57N 44°19' E 008°29'0 0.0
2018-May-17 11:27N 44°19' E 008°29'0 0.0
2018-May-17 10:57N 44°19' E 008°29'0 0.0
2018-May-17 10:27N 44°19' E 008°29'0 0.0
2018-May-17 09:51N 44°19' E 008°29'0 0.0
2018-May-17 09:27N 44°19' E 008°29'0 0.0
2018-May-17 08:57N 44°19' E 008°29'0 0.0
2018-May-17 08:15N 44°19' E 008°29'0 0.0
2018-May-17 07:57N 44°19' E 008°29'0 0.0
2018-May-17 07:27N 44°19' E 008°29'0 0.0
2018-May-17 06:57N 44°19' E 008°29'0 0.0
2018-May-17 06:27N 44°19' E 008°29'1 2.9
2018-May-17 06:00N 44°17' E 008°29'2 3.5
2018-May-17 05:27N 44°16' E 008°27'0 0.4
2018-May-17 04:55N 44°16' E 008°27'0 0.0
2018-May-17 04:25N 44°16' E 008°27'1 1.5
2018-May-17 04:00N 44°16' E 008°27'3 6.6
2018-May-17 03:30N 44°19' E 008°30'1 1.5
2018-May-17 03:00N 44°19' E 008°29'0 0.0
2018-May-17 02:30N 44°19' E 008°29'0 0.0
2018-May-17 02:00N 44°19' E 008°29'0 0.0
2018-May-17 01:30N 44°19' E 008°29'0 0.0
2018-May-17 01:00N 44°19' E 008°29'0 0.0
2018-May-17 00:30N 44°19' E 008°29'0 0.7
2018-May-16 23:59N 44°19' E 008°30'1 1.3
2018-May-16 23:30N 44°19' E 008°31'1 2.0
2018-May-16 23:00N 44°19' E 008°29'0 0.0
2018-May-16 22:27N 44°19' E 008°29'0 0.0
2018-May-16 21:57N 44°19' E 008°29'0 0.0
2018-May-16 21:27N 44°19' E 008°29'0 0.0
2018-May-16 20:57N 44°19' E 008°29'0 0.0
2018-May-16 20:27N 44°19' E 008°29'0 0.0
2018-May-16 19:57N 44°19' E 008°29'0 0.0
2018-May-16 19:27N 44°19' E 008°29'0 0.0
2018-May-16 18:51N 44°19' E 008°29'0 0.0
2018-May-16 18:27N 44°19' E 008°29'0 0.0
2018-May-16 17:57N 44°19' E 008°29'0 0.0
2018-May-16 17:27N 44°19' E 008°29'0 0.0
2018-May-16 16:57N 44°19' E 008°29'0 0.0
2018-May-16 16:27N 44°19' E 008°29'0 0.0
2018-May-16 15:57N 44°19' E 008°29'0 0.0
2018-May-16 15:27N 44°19' E 008°29'0 0.0
2018-May-16 14:57N 44°19' E 008°29'0 0.0
2018-May-16 14:27N 44°19' E 008°29'0 0.0
2018-May-16 13:57N 44°19' E 008°29'0 0.0
2018-May-16 13:27N 44°19' E 008°29'0 0.0
2018-May-16 12:57N 44°19' E 008°29'0 0.0
2018-May-16 12:27N 44°19' E 008°29'0 0.0
2018-May-16 11:57N 44°19' E 008°29'0 0.0
2018-May-16 11:27N 44°19' E 008°29'0 0.0
2018-May-16 10:57N 44°19' E 008°29'0 0.0
2018-May-16 10:27N 44°19' E 008°29'0 0.0
2018-May-16 09:57N 44°19' E 008°29'0 0.0
2018-May-16 09:27N 44°19' E 008°29'0 0.0
2018-May-16 08:57N 44°19' E 008°29'0 0.0
2018-May-16 08:27N 44°19' E 008°29'0 0.9
2018-May-16 08:00N 44°19' E 008°30'3 3.5
2018-May-16 07:15N 44°17' E 008°28'0 0.2
2018-May-16 06:57N 44°17' E 008°28'0 0.3
2018-May-16 06:27N 44°17' E 008°28'2 5.0
2018-May-16 06:00N 44°18' E 008°30'1 0.9
2018-May-16 05:23N 44°19' E 008°29'0 0.0
2018-May-16 05:00N 44°19' E 008°29'0 0.0
2018-May-16 04:29N 44°19' E 008°29'0 0.0
2018-May-16 03:59N 44°19' E 008°29'0 0.0
2018-May-16 03:29N 44°19' E 008°29'0 0.0
2018-May-16 02:59N 44°19' E 008°29'0 0.0
2018-May-16 02:29N 44°19' E 008°29'0 0.0
2018-May-16 01:59N 44°19' E 008°29'0 0.0
2018-May-16 01:29N 44°19' E 008°29'0 0.0
2018-May-16 01:00N 44°19' E 008°29'0 0.0
2018-May-16 00:29N 44°19' E 008°29'0 0.0
2018-May-15 23:59N 44°19' E 008°29'0 0.0
2018-May-15 23:29N 44°19' E 008°29'0 0.0
2018-May-15 22:59N 44°19' E 008°29'0 0.0
2018-May-15 22:29N 44°19' E 008°29'0 0.0
2018-May-15 21:59N 44°19' E 008°29'0 0.0
2018-May-15 21:29N 44°19' E 008°29'0 0.0
2018-May-15 20:47N 44°19' E 008°29'0 0.0
2018-May-15 20:30N 44°19' E 008°29'0 0.0
2018-May-15 19:59N 44°19' E 008°29'0 0.0
2018-May-15 19:29N 44°19' E 008°29'0 0.0
2018-May-15 19:00N 44°19' E 008°29'0 0.0
2018-May-15 18:30N 44°19' E 008°29'0 0.0
2018-May-15 18:00N 44°19' E 008°29'0 0.0
2018-May-15 17:29N 44°19' E 008°29'0 0.0
2018-May-15 17:00N 44°19' E 008°29'0 0.0
2018-May-15 16:29N 44°19' E 008°29'  
Track history (hours):
 
Tides and Currents Weather Stations Pressure Air Temp Water Temp Dewpoint Dewpoint Depression Visibility Wind Speed Wind Dir Waves Ship Positions

Anna Noli

Last reported at 2018-May-25 16:28 UTC. Time now 2018-May-25 16:54 UTC.
Position N 44°19' E 008°29'.

Length 32 m.

Type: Tug. MMSI: 247046500.

Date/timePositionNaut miles runAvg speedWind from/ knotsBaromVisibWave heightAir tempDewpointWater temp
2018-May-25 16:28N 44°19' E 008°29'0 0.0
2018-May-25 15:58N 44°19' E 008°29'0 0.0
2018-May-25 15:28N 44°19' E 008°29'0 0.0
2018-May-25 14:58N 44°19' E 008°29'0 0.0
2018-May-25 14:28N 44°19' E 008°29'0 0.0
2018-May-25 13:58N 44°19' E 008°29'0 0.0
2018-May-25 13:28N 44°19' E 008°29'0 0.0
2018-May-25 12:58N 44°19' E 008°29'0 0.0
2018-May-25 12:28N 44°19' E 008°29'0 0.0
2018-May-25 11:58N 44°19' E 008°29'0 0.0
2018-May-25 11:28N 44°19' E 008°29'0 0.0
2018-May-25 10:58N 44°19' E 008°29'0 0.0
2018-May-25 10:28N 44°19' E 008°29'0 0.0
2018-May-25 09:58N 44°19' E 008°29'0 0.0
2018-May-25 09:28N 44°19' E 008°29'0 0.0
2018-May-25 06:53N 44°19' E 008°29'1 1.4
2018-May-25 06:28N 44°19' E 008°30'0 0.0
2018-May-25 05:39N 44°19' E 008°30'1 0.4
2018-May-25 04:19N 44°19' E 008°29'0 0.0
2018-May-24 19:46N 44°19' E 008°29'0 0.0
2018-May-24 19:19N 44°19' E 008°29'0 0.0
2018-May-24 18:33N 44°19' E 008°29'0 4.6
2018-May-24 18:27N 44°19' E 008°30'3 5.4
2018-May-24 17:55N 44°16' E 008°28'0 0.3
2018-May-24 17:28N 44°16' E 008°28'0 0.3
2018-May-24 16:58N 44°17' E 008°28'1 1.8
2018-May-24 16:27N 44°16' E 008°27'0 0.0
2018-May-24 15:10N 44°16' E 008°27'1 6.9
2018-May-24 15:00N 44°17' E 008°28'2 4.5
2018-May-24 14:27N 44°19' E 008°30'1 1.0
2018-May-24 13:56N 44°19' E 008°31'1 0.2
2018-May-24 08:29N 44°19' E 008°29'0 0.0
2018-May-24 07:59N 44°19' E 008°29'0 0.0
2018-May-24 07:29N 44°19' E 008°29'0 0.0
2018-May-24 06:59N 44°19' E 008°29'0 0.0
2018-May-24 06:29N 44°19' E 008°29'0 0.0
2018-May-24 05:59N 44°19' E 008°29'0 0.0
2018-May-24 05:29N 44°19' E 008°29'0 0.0
2018-May-24 04:59N 44°19' E 008°29'0 0.0
2018-May-24 04:29N 44°19' E 008°29'0 0.0
2018-May-24 03:59N 44°19' E 008°29'0 0.0
2018-May-24 03:29N 44°19' E 008°29'0 0.0
2018-May-24 02:59N 44°19' E 008°29'0 0.0
2018-May-24 02:29N 44°19' E 008°29'0 0.0
2018-May-24 01:59N 44°19' E 008°29'0 0.0
2018-May-24 01:29N 44°19' E 008°29'0 0.0
2018-May-24 00:59N 44°19' E 008°29'0 0.0
2018-May-24 00:29N 44°19' E 008°29'0 0.0
2018-May-23 23:59N 44°19' E 008°29'0 0.0
2018-May-23 23:29N 44°19' E 008°29'0 0.0
2018-May-23 22:59N 44°19' E 008°29'0 0.0
2018-May-23 22:29N 44°19' E 008°29'0 0.0
2018-May-23 21:59N 44°19' E 008°29'0 0.0
2018-May-23 21:29N 44°19' E 008°29'0 0.0
2018-May-23 20:59N 44°19' E 008°29'0 0.0
2018-May-23 20:29N 44°19' E 008°29'0 0.0
2018-May-23 19:59N 44°19' E 008°29'0 0.0
2018-May-23 19:29N 44°19' E 008°29'0 0.0
2018-May-23 18:59N 44°19' E 008°29'0 0.0
2018-May-23 18:29N 44°19' E 008°29'0 0.0
2018-May-23 17:59N 44°19' E 008°29'0 0.0
2018-May-23 17:29N 44°19' E 008°29'0 0.0
2018-May-23 16:59N 44°19' E 008°29'0 0.0
2018-May-23 16:29N 44°19' E 008°29'0 0.0
2018-May-23 15:59N 44°19' E 008°29'0 0.0
2018-May-23 15:29N 44°19' E 008°29'0 0.0
2018-May-23 14:59N 44°19' E 008°29'0 0.0
2018-May-23 14:26N 44°19' E 008°29'1 2.1
2018-May-23 14:00N 44°18' E 008°29'1 2.8
2018-May-23 13:30N 44°17' E 008°28'0 0.3
2018-May-23 13:00N 44°16' E 008°28'0 0.8
2018-May-23 12:30N 44°16' E 008°27'0 0.9
2018-May-23 11:58N 44°16' E 008°27'1 1.9
2018-May-23 11:30N 44°16' E 008°28'0 0.2
2018-May-23 10:56N 44°16' E 008°28'0 0.2
2018-May-23 10:26N 44°17' E 008°28'2 5.7
2018-May-23 10:00N 44°18' E 008°30'1 0.9
2018-May-23 09:26N 44°19' E 008°29'0 0.0
2018-May-23 08:56N 44°19' E 008°29'0 0.0
2018-May-23 08:26N 44°19' E 008°29'0 0.0
2018-May-23 07:38N 44°19' E 008°29'0 0.0
2018-May-23 07:26N 44°19' E 008°29'0 0.0
2018-May-23 06:56N 44°19' E 008°29'0 0.0
2018-May-23 06:26N 44°19' E 008°29'0 0.0
2018-May-23 05:56N 44°19' E 008°29'0 0.0
2018-May-23 05:26N 44°19' E 008°29'0 0.0
2018-May-23 04:56N 44°19' E 008°29'0 0.0
2018-May-23 04:26N 44°19' E 008°29'0 0.0
2018-May-23 03:56N 44°19' E 008°29'0 0.0
2018-May-23 03:26N 44°19' E 008°29'0 0.0
2018-May-23 02:56N 44°19' E 008°29'0 0.0
2018-May-23 02:26N 44°19' E 008°29'0 0.0
2018-May-23 01:56N 44°19' E 008°29'0 0.0
2018-May-23 01:26N 44°19' E 008°29'0 0.0
2018-May-23 00:56N 44°19' E 008°29'0 0.0
2018-May-23 00:20N 44°19' E 008°29'0 0.0
2018-May-22 23:56N 44°19' E 008°29'0 0.0
2018-May-22 23:26N 44°19' E 008°29'0 0.0
2018-May-22 22:56N 44°19' E 008°29'0 0.0
2018-May-22 22:20N 44°19' E 008°29'0 0.0
2018-May-22 21:56N 44°19' E 008°29'0 0.0
2018-May-22 21:26N 44°19' E 008°29'0 0.0
2018-May-22 20:56N 44°19' E 008°29'0 0.0
2018-May-22 20:26N 44°19' E 008°29'0 0.0
2018-May-22 19:56N 44°19' E 008°29'0 0.0
2018-May-22 19:26N 44°19' E 008°29'0 0.0
2018-May-22 18:56N 44°19' E 008°29'0 0.0
2018-May-22 18:26N 44°19' E 008°29'0 0.0
2018-May-22 17:56N 44°19' E 008°29'1 1.9
2018-May-22 17:31N 44°19' E 008°30'4 6.9
2018-May-22 16:56N 44°16' E 008°27'0 0.0
2018-May-22 16:26N 44°16' E 008°27'0 0.0
2018-May-22 15:56N 44°16' E 008°27'0 0.0
2018-May-22 15:29N 44°16' E 008°27'0 0.0
2018-May-22 14:56N 44°16' E 008°27'0 0.0
2018-May-22 14:26N 44°16' E 008°27'0 0.0
2018-May-22 13:56N 44°16' E 008°27'0 0.0
2018-May-22 13:26N 44°16' E 008°27'0 0.9
2018-May-22 12:57N 44°16' E 008°27'0 0.9
2018-May-22 12:27N 44°16' E 008°27'0 0.5
2018-May-22 11:59N 44°16' E 008°27'0 0.5
2018-May-22 11:27N 44°16' E 008°27'0 0.5
2018-May-22 10:53N 44°16' E 008°27'0 0.0
2018-May-22 10:29N 44°16' E 008°27'0 0.0
2018-May-22 09:59N 44°16' E 008°27'0 0.0
2018-May-22 09:29N 44°16' E 008°27'0 0.0
2018-May-22 08:59N 44°16' E 008°27'1 1.9
2018-May-22 08:24N 44°17' E 008°28'0 0.0
2018-May-22 07:55N 44°17' E 008°28'0 0.1
2018-May-22 07:25N 44°17' E 008°28'0 0.7
2018-May-22 06:55N 44°16' E 008°28'1 1.5
2018-May-22 06:30N 44°16' E 008°28'3 5.6
2018-May-22 06:00N 44°18' E 008°30'0 0.9
2018-May-22 05:27N 44°19' E 008°29'0 0.0
2018-May-22 04:57N 44°19' E 008°29'0 0.0
2018-May-22 04:27N 44°19' E 008°29'0 0.0
2018-May-22 03:57N 44°19' E 008°29'0 0.0
2018-May-22 03:27N 44°19' E 008°29'0 0.0
2018-May-22 02:57N 44°19' E 008°29'0 0.0
2018-May-22 02:27N 44°19' E 008°29'0 0.0
2018-May-22 01:57N 44°19' E 008°29'0 0.0
2018-May-22 01:27N 44°19' E 008°29'0 0.0
2018-May-22 00:57N 44°19' E 008°29'0 0.0
2018-May-22 00:27N 44°19' E 008°29'0 0.0
2018-May-21 23:57N 44°19' E 008°29'0 0.0
2018-May-21 23:27N 44°19' E 008°29'0 0.0
2018-May-21 22:57N 44°19' E 008°29'0 0.0
2018-May-21 22:27N 44°19' E 008°29'0 0.0
2018-May-21 21:57N 44°19' E 008°29'0 0.0
2018-May-21 21:27N 44°19' E 008°29'0 0.0
2018-May-21 20:57N 44°19' E 008°29'0 0.0
2018-May-21 20:27N 44°19' E 008°29'0 0.0
2018-May-21 19:57N 44°19' E 008°29'0 0.0
2018-May-21 19:27N 44°19' E 008°29'0 0.0
2018-May-21 18:57N 44°19' E 008°29'0 0.0
2018-May-21 18:27N 44°19' E 008°29'0 0.0
2018-May-21 17:57N 44°19' E 008°29'0 0.0
2018-May-21 17:27N 44°19' E 008°29'0 0.0
2018-May-21 16:57N 44°19' E 008°29'0 0.0
2018-May-21 16:27N 44°19' E 008°29'0 0.0
2018-May-21 15:57N 44°19' E 008°29'0 0.0
2018-May-21 15:27N 44°19' E 008°29'0 0.0
2018-May-21 14:57N 44°19' E 008°29'0 0.0
2018-May-21 14:27N 44°19' E 008°29'0 0.0
2018-May-21 13:57N 44°19' E 008°29'0 0.0
2018-May-21 13:27N 44°19' E 008°29'0 0.0
2018-May-21 12:57N 44°19' E 008°29'0 0.0
2018-May-21 12:27N 44°19' E 008°29'0 0.0
2018-May-21 11:57N 44°19' E 008°29'0 0.0
2018-May-21 11:27N 44°19' E 008°29'0 0.0
2018-May-21 10:57N 44°19' E 008°29'0 0.0
2018-May-21 10:27N 44°19' E 008°29'0 0.0
2018-May-21 09:57N 44°19' E 008°29'0 0.0
2018-May-21 09:27N 44°19' E 008°29'0 0.0
2018-May-21 08:57N 44°19' E 008°29'0 0.0
2018-May-21 08:27N 44°19' E 008°29'0 0.0
2018-May-21 07:57N 44°19' E 008°29'0 0.0
2018-May-21 07:27N 44°19' E 008°29'0 0.0
2018-May-21 06:57N 44°19' E 008°29'0 0.0
2018-May-21 06:27N 44°19' E 008°29'0 0.0
2018-May-21 05:57N 44°19' E 008°29'0 0.0
2018-May-21 05:27N 44°19' E 008°29'0 0.0
2018-May-21 04:57N 44°19' E 008°29'0 0.0
2018-May-21 04:27N 44°19' E 008°29'0 0.0
2018-May-21 03:59N 44°19' E 008°29'0 0.9
2018-May-21 03:29N 44°19' E 008°30'0 0.8
2018-May-21 02:59N 44°19' E 008°30'1 1.8
2018-May-21 02:30N 44°19' E 008°29'0 0.0
2018-May-21 01:54N 44°19' E 008°29'0 0.0
2018-May-21 01:24N 44°19' E 008°29'0 0.0
2018-May-21 01:00N 44°19' E 008°29'0 0.0
2018-May-21 00:30N 44°19' E 008°29'0 0.0
2018-May-21 00:00N 44°19' E 008°29'0 0.0
2018-May-20 23:30N 44°19' E 008°29'0 0.0
2018-May-20 23:00N 44°19' E 008°29'0 0.0
2018-May-20 22:30N 44°19' E 008°29'0 0.0
2018-May-20 22:00N 44°19' E 008°29'0 0.0
2018-May-20 21:30N 44°19' E 008°29'0 0.0
2018-May-20 21:00N 44°19' E 008°29'0 0.0
2018-May-20 20:30N 44°19' E 008°29'0 0.0
2018-May-20 20:00N 44°19' E 008°29'0 0.0
2018-May-20 19:18N 44°19' E 008°29'0 0.0
2018-May-20 19:00N 44°19' E 008°29'0 0.0
2018-May-20 18:30N 44°19' E 008°29'0 0.0
2018-May-20 18:00N 44°19' E 008°29'0 0.0
2018-May-20 17:30N 44°19' E 008°29'0 0.1
2018-May-20 16:59N 44°18' E 008°29'0 0.0
2018-May-20 16:29N 44°18' E 008°29'0 0.0
2018-May-20 15:59N 44°18' E 008°29'0 0.0
2018-May-20 15:29N 44°18' E 008°29'0 0.0
2018-May-20 14:59N 44°18' E 008°29'0 0.0
2018-May-20 14:29N 44°18' E 008°29'0 0.0
2018-May-20 13:59N 44°18' E 008°29'0 0.0
2018-May-20 13:29N 44°18' E 008°29'0 0.0
2018-May-20 12:59N 44°18' E 008°29'1 1.3
2018-May-20 12:30N 44°19' E 008°30'0 0.6
2018-May-20 12:00N 44°19' E 008°30'0 0.7
2018-May-20 11:26N 44°18' E 008°29'0 0.0
2018-May-20 10:59N 44°18' E 008°29'1 1.3
2018-May-20 10:30N 44°19' E 008°30'0 0.5
2018-May-20 09:59N 44°19' E 008°30'0 0.8
2018-May-20 09:30N 44°18' E 008°29'0 0.0
2018-May-20 08:48N 44°18' E 008°29'0 0.0
2018-May-20 08:30N 44°18' E 008°29'0 0.0
2018-May-20 07:54N 44°18' E 008°29'0 0.0
2018-May-20 07:24N 44°18' E 008°29'0 0.0
2018-May-20 07:00N 44°18' E 008°29'0 0.0
2018-May-20 06:30N 44°18' E 008°29'0 0.0
2018-May-20 06:00N 44°18' E 008°29'0 0.0
2018-May-20 05:30N 44°18' E 008°29'0 0.0
2018-May-20 05:00N 44°18' E 008°29'0 0.0
2018-May-20 04:30N 44°18' E 008°29'0 0.0
2018-May-20 04:00N 44°18' E 008°29'0 0.0
2018-May-20 03:30N 44°18' E 008°29'0 0.0
2018-May-20 03:00N 44°18' E 008°29'0 0.0
2018-May-20 02:30N 44°18' E 008°29'0 0.0
2018-May-20 01:54N 44°18' E 008°29'0 0.0
2018-May-20 01:30N 44°18' E 008°29'0 0.0
2018-May-20 01:00N 44°18' E 008°29'0 0.0
2018-May-20 00:30N 44°18' E 008°29'0 0.0
2018-May-20 00:00N 44°18' E 008°29'0 0.0
2018-May-19 23:30N 44°18' E 008°29'0 0.0
2018-May-19 23:00N 44°18' E 008°29'0 0.0
2018-May-19 22:30N 44°18' E 008°29'0 0.0
2018-May-19 21:54N 44°18' E 008°29'0 0.0
2018-May-19 21:30N 44°18' E 008°29'0 0.0
2018-May-19 21:00N 44°18' E 008°29'0 0.0
2018-May-19 20:30N 44°18' E 008°29'0 0.0
2018-May-19 20:00N 44°18' E 008°29'0 0.0
2018-May-19 19:24N 44°18' E 008°29'0 0.0
2018-May-19 19:00N 44°18' E 008°29'0 0.0
2018-May-19 18:30N 44°18' E 008°29'0 0.0
2018-May-19 18:00N 44°18' E 008°29'0 0.0
2018-May-19 17:30N 44°18' E 008°29'0 0.0
2018-May-19 17:00N 44°18' E 008°29'0 0.0
2018-May-19 16:30N 44°18' E 008°29'0 0.0
2018-May-19 15:54N 44°18' E 008°29'0 0.0
2018-May-19 15:30N 44°18' E 008°29'0 0.0
2018-May-19 15:00N 44°18' E 008°29'0 0.0
2018-May-19 14:30N 44°18' E 008°29'0 0.0
2018-May-19 14:00N 44°18' E 008°29'0 0.0
2018-May-19 13:24N 44°18' E 008°29'0 0.0
2018-May-19 13:00N 44°18' E 008°29'0 0.0
2018-May-19 12:30N 44°18' E 008°29'0 0.0
2018-May-19 12:00N 44°18' E 008°29'0 0.0
2018-May-19 11:30N 44°18' E 008°29'0 0.0
2018-May-19 10:48N 44°18' E 008°29'0 0.3
2018-May-19 10:30N 44°19' E 008°29'0 0.6
2018-May-19 10:00N 44°19' E 008°30'0 0.9
2018-May-19 09:30N 44°19' E 008°30'1 1.3
2018-May-19 08:57N 44°19' E 008°29'0 0.0
2018-May-19 08:30N 44°19' E 008°29'0 0.0
2018-May-19 07:57N 44°19' E 008°29'0 0.0
2018-May-19 07:27N 44°19' E 008°29'0 0.0
2018-May-19 06:57N 44°19' E 008°29'0 0.0
2018-May-19 06:27N 44°19' E 008°29'0 0.0
2018-May-19 05:57N 44°19' E 008°29'0 0.0
2018-May-19 05:27N 44°19' E 008°29'0 0.0
2018-May-19 04:57N 44°19' E 008°29'0 0.0
2018-May-19 04:27N 44°19' E 008°29'0 0.0
2018-May-19 03:57N 44°19' E 008°29'0 0.0
2018-May-19 03:27N 44°19' E 008°29'0 0.0
2018-May-19 02:57N 44°19' E 008°29'0 0.0
2018-May-19 02:27N 44°19' E 008°29'0 0.0
2018-May-19 01:57N 44°19' E 008°29'0 0.0
2018-May-19 01:27N 44°19' E 008°29'0 0.0
2018-May-19 00:57N 44°19' E 008°29'0 0.0
2018-May-19 00:27N 44°19' E 008°29'0 0.0
2018-May-18 23:57N 44°19' E 008°29'0 0.0
2018-May-18 23:27N 44°19' E 008°29'0 0.0
2018-May-18 22:57N 44°19' E 008°29'0 0.0
2018-May-18 22:27N 44°19' E 008°29'0 0.0
2018-May-18 21:57N 44°19' E 008°29'0 0.0
2018-May-18 21:27N 44°19' E 008°29'0 0.0
2018-May-18 20:57N 44°19' E 008°29'0 0.0
2018-May-18 20:27N 44°19' E 008°29'0 0.0
2018-May-18 19:57N 44°19' E 008°29'0 0.0
2018-May-18 19:27N 44°19' E 008°29'0 0.0
2018-May-18 18:57N 44°19' E 008°29'0 0.0
2018-May-18 18:27N 44°19' E 008°29'0 0.0
2018-May-18 17:51N 44°19' E 008°29'0 0.0
2018-May-18 17:27N 44°19' E 008°29'0 0.0
2018-May-18 16:51N 44°19' E 008°29'0 0.0
2018-May-18 16:21N 44°19' E 008°29'0 0.0
2018-May-18 15:57N 44°19' E 008°29'0 0.0
2018-May-18 15:27N 44°19' E 008°29'0 0.0
2018-May-18 14:57N 44°19' E 008°29'0 0.0
2018-May-18 14:27N 44°19' E 008°29'0 0.0
2018-May-18 13:57N 44°19' E 008°29'0 0.0
2018-May-18 13:27N 44°19' E 008°29'0 0.0
2018-May-18 12:48N 44°19' E 008°29'0 0.0
2018-May-18 12:27N 44°19' E 008°29'0 0.0
2018-May-18 12:00N 44°19' E 008°29'0 0.0
2018-May-18 11:27N 44°19' E 008°29'0 0.0
2018-May-18 10:57N 44°19' E 008°29'0 0.0
2018-May-18 10:27N 44°19' E 008°29'0 0.0
2018-May-18 09:57N 44°19' E 008°29'0 0.0
2018-May-18 09:27N 44°19' E 008°29'0 0.0
2018-May-18 06:57N 44°19' E 008°29'0 0.0
2018-May-18 06:27N 44°19' E 008°29'0 0.0
2018-May-18 05:57N 44°19' E 008°29'0 0.0
2018-May-18 05:27N 44°19' E 008°29'0 0.0
2018-May-18 04:57N 44°19' E 008°29'0 0.0
2018-May-18 04:27N 44°19' E 008°29'0 0.0
2018-May-18 03:57N 44°19' E 008°29'0 0.0
2018-May-18 03:27N 44°19' E 008°29'0 0.0
2018-May-18 02:57N 44°19' E 008°29'0 0.0
2018-May-18 02:27N 44°19' E 008°29'0 0.0
2018-May-18 01:57N 44°19' E 008°29'0 0.0
2018-May-18 01:27N 44°19' E 008°29'0 0.0
2018-May-18 00:57N 44°19' E 008°29'0 0.0
2018-May-18 00:27N 44°19' E 008°29'0 0.0
2018-May-17 23:57N 44°19' E 008°29'0 0.0
2018-May-17 23:27N 44°19' E 008°29'0 0.0
2018-May-17 22:57N 44°19' E 008°29'0 0.0
2018-May-17 22:27N 44°19' E 008°29'0 0.0
2018-May-17 21:57N 44°19' E 008°29'0 0.0
2018-May-17 21:27N 44°19' E 008°29'0 0.0
2018-May-17 20:57N 44°19' E 008°29'0 0.0
2018-May-17 20:27N 44°19' E 008°29'0 0.0
2018-May-17 19:45N 44°19' E 008°29'0 0.0
2018-May-17 19:27N 44°19' E 008°29'0 0.0
2018-May-17 18:57N 44°19' E 008°29'0 0.0
2018-May-17 18:27N 44°19' E 008°29'0 0.0
2018-May-17 17:57N 44°19' E 008°29'0 0.0
2018-May-17 17:27N 44°19' E 008°29'0 0.0
2018-May-17 16:57N 44°19' E 008°29'0 0.0
2018-May-17 16:27N 44°19' E 008°29'0 0.0
2018-May-17 15:57N 44°19' E 008°29'0 0.0
2018-May-17 15:27N 44°19' E 008°29'0 0.0
2018-May-17 14:57N 44°19' E 008°29'0 0.0
2018-May-17 14:27N 44°19' E 008°29'0 0.0
2018-May-17 13:57N 44°19' E 008°29'0 0.0
2018-May-17 13:27N 44°19' E 008°29'0 0.0
2018-May-17 12:57N 44°19' E 008°29'0 0.0
2018-May-17 12:27N 44°19' E 008°29'0 0.0
2018-May-17 11:57N 44°19' E 008°29'0 0.0
2018-May-17 11:27N 44°19' E 008°29'0 0.0
2018-May-17 10:57N 44°19' E 008°29'0 0.0
2018-May-17 10:27N 44°19' E 008°29'0 0.0
2018-May-17 09:51N 44°19' E 008°29'0 0.0
2018-May-17 09:27N 44°19' E 008°29'0 0.0
2018-May-17 08:57N 44°19' E 008°29'0 0.0
2018-May-17 08:15N 44°19' E 008°29'0 0.0
2018-May-17 07:57N 44°19' E 008°29'0 0.0
2018-May-17 07:27N 44°19' E 008°29'0 0.0
2018-May-17 06:57N 44°19' E 008°29'0 0.0
2018-May-17 06:27N 44°19' E 008°29'1 2.9
2018-May-17 06:00N 44°17' E 008°29'2 3.5
2018-May-17 05:27N 44°16' E 008°27'0 0.4
2018-May-17 04:55N 44°16' E 008°27'0 0.0
2018-May-17 04:25N 44°16' E 008°27'1 1.5
2018-May-17 04:00N 44°16' E 008°27'3 6.6
2018-May-17 03:30N 44°19' E 008°30'1 1.5
2018-May-17 03:00N 44°19' E 008°29'0 0.0
2018-May-17 02:30N 44°19' E 008°29'0 0.0
2018-May-17 02:00N 44°19' E 008°29'0 0.0
2018-May-17 01:30N 44°19' E 008°29'0 0.0
2018-May-17 01:00N 44°19' E 008°29'0 0.0
2018-May-17 00:30N 44°19' E 008°29'0 0.7
2018-May-16 23:59N 44°19' E 008°30'1 1.3
2018-May-16 23:30N 44°19' E 008°31'1 2.0
2018-May-16 23:00N 44°19' E 008°29'0 0.0
2018-May-16 22:27N 44°19' E 008°29'0 0.0
2018-May-16 21:57N 44°19' E 008°29'0 0.0
2018-May-16 21:27N 44°19' E 008°29'0 0.0
2018-May-16 20:57N 44°19' E 008°29'0 0.0
2018-May-16 20:27N 44°19' E 008°29'0 0.0
2018-May-16 19:57N 44°19' E 008°29'0 0.0
2018-May-16 19:27N 44°19' E 008°29'0 0.0
2018-May-16 18:51N 44°19' E 008°29'0 0.0
2018-May-16 18:27N 44°19' E 008°29'0 0.0
2018-May-16 17:57N 44°19' E 008°29'0 0.0
2018-May-16 17:27N 44°19' E 008°29'0 0.0
2018-May-16 16:57N 44°19' E 008°29'0 0.0
2018-May-16 16:27N 44°19' E 008°29'0 0.0
2018-May-16 15:57N 44°19' E 008°29'0 0.0
2018-May-16 15:27N 44°19' E 008°29'0 0.0
2018-May-16 14:57N 44°19' E 008°29'0 0.0
2018-May-16 14:27N 44°19' E 008°29'0 0.0
2018-May-16 13:57N 44°19' E 008°29'0 0.0
2018-May-16 13:27N 44°19' E 008°29'0 0.0
2018-May-16 12:57N 44°19' E 008°29'0 0.0
2018-May-16 12:27N 44°19' E 008°29'0 0.0
2018-May-16 11:57N 44°19' E 008°29'0 0.0
2018-May-16 11:27N 44°19' E 008°29'0 0.0
2018-May-16 10:57N 44°19' E 008°29'0 0.0
2018-May-16 10:27N 44°19' E 008°29'0 0.0
2018-May-16 09:57N 44°19' E 008°29'0 0.0
2018-May-16 09:27N 44°19' E 008°29'0 0.0
2018-May-16 08:57N 44°19' E 008°29'0 0.0
2018-May-16 08:27N 44°19' E 008°29'0 0.9
2018-May-16 08:00N 44°19' E 008°30'3 3.5
2018-May-16 07:15N 44°17' E 008°28'0 0.2
2018-May-16 06:57N 44°17' E 008°28'0 0.3
2018-May-16 06:27N 44°17' E 008°28'2 5.0
2018-May-16 06:00N 44°18' E 008°30'1 0.9
2018-May-16 05:23N 44°19' E 008°29'0 0.0
2018-May-16 05:00N 44°19' E 008°29'0 0.0
2018-May-16 04:29N 44°19' E 008°29'0 0.0
2018-May-16 03:59N 44°19' E 008°29'0 0.0
2018-May-16 03:29N 44°19' E 008°29'0 0.0
2018-May-16 02:59N 44°19' E 008°29'0 0.0
2018-May-16 02:29N 44°19' E 008°29'0 0.0
2018-May-16 01:59N 44°19' E 008°29'0 0.0
2018-May-16 01:29N 44°19' E 008°29'0 0.0
2018-May-16 01:00N 44°19' E 008°29'0 0.0
2018-May-16 00:29N 44°19' E 008°29'0 0.0
2018-May-15 23:59N 44°19' E 008°29'0 0.0
2018-May-15 23:29N 44°19' E 008°29'0 0.0
2018-May-15 22:59N 44°19' E 008°29'0 0.0
2018-May-15 22:29N 44°19' E 008°29'0 0.0
2018-May-15 21:59N 44°19' E 008°29'0 0.0
2018-May-15 21:29N 44°19' E 008°29'0 0.0
2018-May-15 20:47N 44°19' E 008°29'0 0.0
2018-May-15 20:30N 44°19' E 008°29'0 0.0
2018-May-15 19:59N 44°19' E 008°29'0 0.0
2018-May-15 19:29N 44°19' E 008°29'0 0.0
2018-May-15 19:00N 44°19' E 008°29'0 0.0
2018-May-15 18:30N 44°19' E 008°29'0 0.0
2018-May-15 18:00N 44°19' E 008°29'0 0.0
2018-May-15 17:29N 44°19' E 008°29'0 0.0
2018-May-15 17:00N 44°19' E 008°29'0 0.0
2018-May-15 16:29N 44°19' E 008°29'  

Dump ship's entire track history